sensor_id;sensor_type;location;lat;lon;timestamp;temperature;humidity
33095;DHT22;19459;53.044;8.910;2023-07-31T00:00:29;16.30;99.90
33095;DHT22;19459;53.044;8.910;2023-07-31T00:02:55;16.30;99.90
33095;DHT22;19459;53.044;8.910;2023-07-31T00:05:21;16.30;99.90
33095;DHT22;19459;53.044;8.910;2023-07-31T00:07:47;16.30;99.90
33095;DHT22;19459;53.044;8.910;2023-07-31T00:10:13;16.30;99.90
33095;DHT22;19459;53.044;8.910;2023-07-31T00:12:40;16.30;99.90
33095;DHT22;19459;53.044;8.910;2023-07-31T00:15:09;16.20;99.90
33095;DHT22;19459;53.044;8.910;2023-07-31T00:17:36;16.30;99.90
33095;DHT22;19459;53.044;8.910;2023-07-31T00:20:02;16.30;99.90
33095;DHT22;19459;53.044;8.910;2023-07-31T00:22:28;16.30;99.90
33095;DHT22;19459;53.044;8.910;2023-07-31T00:24:56;16.30;99.90
33095;DHT22;19459;53.044;8.910;2023-07-31T00:27:22;16.30;99.90
33095;DHT22;19459;53.044;8.910;2023-07-31T00:29:48;16.30;99.90
33095;DHT22;19459;53.044;8.910;2023-07-31T00:32:14;16.30;99.90
33095;DHT22;19459;53.044;8.910;2023-07-31T00:34:40;16.30;99.90
33095;DHT22;19459;53.044;8.910;2023-07-31T00:37:05;16.30;99.90
33095;DHT22;19459;53.044;8.910;2023-07-31T00:39:33;16.20;99.90
33095;DHT22;19459;53.044;8.910;2023-07-31T00:42:00;16.20;99.90
33095;DHT22;19459;53.044;8.910;2023-07-31T00:44:25;16.20;99.90
33095;DHT22;19459;53.044;8.910;2023-07-31T00:46:51;16.20;99.90
33095;DHT22;19459;53.044;8.910;2023-07-31T00:49:18;16.20;99.90
33095;DHT22;19459;53.044;8.910;2023-07-31T00:51:44;16.20;99.90
33095;DHT22;19459;53.044;8.910;2023-07-31T00:54:09;16.20;99.90
33095;DHT22;19459;53.044;8.910;2023-07-31T00:56:36;16.20;99.90
33095;DHT22;19459;53.044;8.910;2023-07-31T00:59:03;16.20;99.90
33095;DHT22;19459;53.044;8.910;2023-07-31T01:01:29;16.10;99.90
33095;DHT22;19459;53.044;8.910;2023-07-31T01:03:55;16.20;99.90
33095;DHT22;19459;53.044;8.910;2023-07-31T01:12:24;16.10;99.90
33095;DHT22;19459;53.044;8.910;2023-07-31T01:15:09;16.10;99.90
33095;DHT22;19459;53.044;8.910;2023-07-31T01:17:43;16.10;99.90
33095;DHT22;19459;53.044;8.910;2023-07-31T01:20:15;16.10;99.90
33095;DHT22;19459;53.044;8.910;2023-07-31T01:28:55;16.10;99.90
33095;DHT22;19459;53.044;8.910;2023-07-31T01:31:26;16.10;99.90
33095;DHT22;19459;53.044;8.910;2023-07-31T01:33:57;16.10;99.90
33095;DHT22;19459;53.044;8.910;2023-07-31T01:36:25;16.10;99.90
33095;DHT22;19459;53.044;8.910;2023-07-31T01:38:51;16.10;99.90
33095;DHT22;19459;53.044;8.910;2023-07-31T01:41:18;16.10;99.90
33095;DHT22;19459;53.044;8.910;2023-07-31T01:43:45;16.10;99.90
33095;DHT22;19459;53.044;8.910;2023-07-31T01:46:11;16.10;99.90
33095;DHT22;19459;53.044;8.910;2023-07-31T01:48:37;16.10;99.90
33095;DHT22;19459;53.044;8.910;2023-07-31T01:51:03;16.10;99.90
33095;DHT22;19459;53.044;8.910;2023-07-31T01:53:31;16.00;99.90
33095;DHT22;19459;53.044;8.910;2023-07-31T01:55:56;16.00;99.90
33095;DHT22;19459;53.044;8.910;2023-07-31T01:58:22;15.90;99.90
33095;DHT22;19459;53.044;8.910;2023-07-31T02:00:48;15.90;99.90
33095;DHT22;19459;53.044;8.910;2023-07-31T02:03:16;15.90;99.90
33095;DHT22;19459;53.044;8.910;2023-07-31T02:05:46;15.90;99.90
33095;DHT22;19459;53.044;8.910;2023-07-31T02:08:13;15.80;99.90
33095;DHT22;19459;53.044;8.910;2023-07-31T02:10:40;15.80;99.90
33095;DHT22;19459;53.044;8.910;2023-07-31T02:13:06;15.70;99.90
33095;DHT22;19459;53.044;8.910;2023-07-31T02:15:32;15.80;99.90
33095;DHT22;19459;53.044;8.910;2023-07-31T02:17:58;15.70;99.90
33095;DHT22;19459;53.044;8.910;2023-07-31T02:20:24;15.70;99.90
33095;DHT22;19459;53.044;8.910;2023-07-31T02:22:50;15.70;99.90
33095;DHT22;19459;53.044;8.910;2023-07-31T02:25:16;15.70;99.90
33095;DHT22;19459;53.044;8.910;2023-07-31T02:27:42;15.60;99.90
33095;DHT22;19459;53.044;8.910;2023-07-31T02:30:08;15.60;99.90
33095;DHT22;19459;53.044;8.910;2023-07-31T02:32:35;15.60;99.90
33095;DHT22;19459;53.044;8.910;2023-07-31T02:35:00;15.50;99.90
33095;DHT22;19459;53.044;8.910;2023-07-31T02:37:26;15.50;99.90
33095;DHT22;19459;53.044;8.910;2023-07-31T02:39:54;15.50;99.90
33095;DHT22;19459;53.044;8.910;2023-07-31T02:42:20;15.40;99.90
33095;DHT22;19459;53.044;8.910;2023-07-31T02:44:46;15.40;99.90
33095;DHT22;19459;53.044;8.910;2023-07-31T02:47:12;15.40;99.90
33095;DHT22;19459;53.044;8.910;2023-07-31T02:49:37;15.40;99.90
33095;DHT22;19459;53.044;8.910;2023-07-31T02:52:03;15.40;99.90
33095;DHT22;19459;53.044;8.910;2023-07-31T02:54:29;15.40;99.90
33095;DHT22;19459;53.044;8.910;2023-07-31T02:56:55;15.30;99.90
33095;DHT22;19459;53.044;8.910;2023-07-31T02:59:21;15.30;99.90
33095;DHT22;19459;53.044;8.910;2023-07-31T03:01:47;15.30;99.90
33095;DHT22;19459;53.044;8.910;2023-07-31T03:04:13;15.30;99.90
33095;DHT22;19459;53.044;8.910;2023-07-31T03:06:38;15.30;99.90
33095;DHT22;19459;53.044;8.910;2023-07-31T03:09:04;15.30;99.90
33095;DHT22;19459;53.044;8.910;2023-07-31T03:11:30;15.30;99.90
33095;DHT22;19459;53.044;8.910;2023-07-31T03:13:56;15.30;99.90
33095;DHT22;19459;53.044;8.910;2023-07-31T03:16:23;15.20;99.90
33095;DHT22;19459;53.044;8.910;2023-07-31T03:18:49;15.20;99.90
33095;DHT22;19459;53.044;8.910;2023-07-31T03:21:14;15.20;99.90
33095;DHT22;19459;53.044;8.910;2023-07-31T03:23:40;15.20;99.90
33095;DHT22;19459;53.044;8.910;2023-07-31T03:26:07;15.20;99.90
33095;DHT22;19459;53.044;8.910;2023-07-31T03:28:33;15.20;99.90
33095;DHT22;19459;53.044;8.910;2023-07-31T03:30:59;15.20;99.90
33095;DHT22;19459;53.044;8.910;2023-07-31T03:33:25;15.20;99.90
33095;DHT22;19459;53.044;8.910;2023-07-31T03:35:51;15.20;99.90
33095;DHT22;19459;53.044;8.910;2023-07-31T03:38:18;15.10;99.90
33095;DHT22;19459;53.044;8.910;2023-07-31T03:40:44;15.20;99.90
33095;DHT22;19459;53.044;8.910;2023-07-31T03:43:10;15.20;99.90
33095;DHT22;19459;53.044;8.910;2023-07-31T03:45:36;15.20;99.90
33095;DHT22;19459;53.044;8.910;2023-07-31T03:48:03;15.20;99.90
33095;DHT22;19459;53.044;8.910;2023-07-31T03:50:29;15.10;99.90
33095;DHT22;19459;53.044;8.910;2023-07-31T03:52:55;15.20;99.90
33095;DHT22;19459;53.044;8.910;2023-07-31T03:55:21;15.20;99.90
33095;DHT22;19459;53.044;8.910;2023-07-31T03:57:47;15.20;99.90
33095;DHT22;19459;53.044;8.910;2023-07-31T04:00:13;15.20;99.90
33095;DHT22;19459;53.044;8.910;2023-07-31T04:02:39;15.20;99.90
33095;DHT22;19459;53.044;8.910;2023-07-31T04:05:05;15.20;99.90
33095;DHT22;19459;53.044;8.910;2023-07-31T04:07:31;15.20;99.90
33095;DHT22;19459;53.044;8.910;2023-07-31T04:09:57;15.20;99.90
33095;DHT22;19459;53.044;8.910;2023-07-31T04:12:23;15.20;99.90
33095;DHT22;19459;53.044;8.910;2023-07-31T04:14:49;15.20;99.90
33095;DHT22;19459;53.044;8.910;2023-07-31T04:17:17;15.20;99.90
33095;DHT22;19459;53.044;8.910;2023-07-31T04:19:43;15.20;99.90
33095;DHT22;19459;53.044;8.910;2023-07-31T04:22:08;15.20;99.90
33095;DHT22;19459;53.044;8.910;2023-07-31T04:24:34;15.20;99.90
33095;DHT22;19459;53.044;8.910;2023-07-31T04:27:00;15.20;99.90
33095;DHT22;19459;53.044;8.910;2023-07-31T04:29:26;15.20;99.90
33095;DHT22;19459;53.044;8.910;2023-07-31T04:31:52;15.20;99.90
33095;DHT22;19459;53.044;8.910;2023-07-31T04:34:17;15.20;99.90
33095;DHT22;19459;53.044;8.910;2023-07-31T04:36:43;15.20;99.90
33095;DHT22;19459;53.044;8.910;2023-07-31T04:39:09;15.30;99.90
33095;DHT22;19459;53.044;8.910;2023-07-31T04:41:35;15.30;99.90
33095;DHT22;19459;53.044;8.910;2023-07-31T04:44:01;15.30;99.90
33095;DHT22;19459;53.044;8.910;2023-07-31T04:46:27;15.30;99.90
33095;DHT22;19459;53.044;8.910;2023-07-31T04:48:52;15.30;99.90
33095;DHT22;19459;53.044;8.910;2023-07-31T04:51:18;15.30;99.90
33095;DHT22;19459;53.044;8.910;2023-07-31T04:53:44;15.30;99.90
33095;DHT22;19459;53.044;8.910;2023-07-31T04:56:10;15.30;99.90
33095;DHT22;19459;53.044;8.910;2023-07-31T04:58:35;15.30;99.90
33095;DHT22;19459;53.044;8.910;2023-07-31T05:01:01;15.30;99.90
33095;DHT22;19459;53.044;8.910;2023-07-31T05:03:27;15.30;99.90
33095;DHT22;19459;53.044;8.910;2023-07-31T05:05:53;15.30;99.90
33095;DHT22;19459;53.044;8.910;2023-07-31T05:08:19;15.30;99.90
33095;DHT22;19459;53.044;8.910;2023-07-31T05:10:44;15.30;99.90
33095;DHT22;19459;53.044;8.910;2023-07-31T05:13:10;15.30;99.90
33095;DHT22;19459;53.044;8.910;2023-07-31T05:15:36;15.40;99.90
33095;DHT22;19459;53.044;8.910;2023-07-31T05:18:04;15.40;99.90
33095;DHT22;19459;53.044;8.910;2023-07-31T05:20:30;15.40;99.90
33095;DHT22;19459;53.044;8.910;2023-07-31T05:22:56;15.40;99.90
33095;DHT22;19459;53.044;8.910;2023-07-31T05:25:22;15.40;99.90
33095;DHT22;19459;53.044;8.910;2023-07-31T05:27:48;15.40;99.90
33095;DHT22;19459;53.044;8.910;2023-07-31T05:30:14;15.40;99.90
33095;DHT22;19459;53.044;8.910;2023-07-31T05:32:39;15.40;99.90
33095;DHT22;19459;53.044;8.910;2023-07-31T05:35:05;15.40;99.90
33095;DHT22;19459;53.044;8.910;2023-07-31T05:37:32;15.40;99.90
33095;DHT22;19459;53.044;8.910;2023-07-31T05:39:58;15.40;99.90
33095;DHT22;19459;53.044;8.910;2023-07-31T05:42:24;15.40;99.90
33095;DHT22;19459;53.044;8.910;2023-07-31T05:44:49;15.50;99.90
33095;DHT22;19459;53.044;8.910;2023-07-31T05:47:15;15.50;99.90
33095;DHT22;19459;53.044;8.910;2023-07-31T05:49:41;15.50;99.90
33095;DHT22;19459;53.044;8.910;2023-07-31T05:52:07;15.50;99.90
33095;DHT22;19459;53.044;8.910;2023-07-31T05:54:33;15.60;99.90
33095;DHT22;19459;53.044;8.910;2023-07-31T05:56:59;15.60;99.90
33095;DHT22;19459;53.044;8.910;2023-07-31T05:59:25;15.60;99.90
33095;DHT22;19459;53.044;8.910;2023-07-31T06:01:50;15.60;99.90
33095;DHT22;19459;53.044;8.910;2023-07-31T06:04:16;15.60;99.90
33095;DHT22;19459;53.044;8.910;2023-07-31T06:06:42;15.60;99.90
33095;DHT22;19459;53.044;8.910;2023-07-31T06:09:07;15.60;99.90
33095;DHT22;19459;53.044;8.910;2023-07-31T06:11:33;15.60;99.90
33095;DHT22;19459;53.044;8.910;2023-07-31T06:13:59;15.50;99.90
33095;DHT22;19459;53.044;8.910;2023-07-31T06:16:25;15.50;99.90
33095;DHT22;19459;53.044;8.910;2023-07-31T06:18:52;15.60;99.90
33095;DHT22;19459;53.044;8.910;2023-07-31T06:21:18;15.60;99.90
33095;DHT22;19459;53.044;8.910;2023-07-31T06:23:44;15.60;99.90
33095;DHT22;19459;53.044;8.910;2023-07-31T06:26:09;15.70;99.90
33095;DHT22;19459;53.044;8.910;2023-07-31T06:28:35;15.70;99.90
33095;DHT22;19459;53.044;8.910;2023-07-31T06:31:01;15.70;99.90
33095;DHT22;19459;53.044;8.910;2023-07-31T06:33:27;15.70;99.90
33095;DHT22;19459;53.044;8.910;2023-07-31T06:35:53;15.80;99.90
33095;DHT22;19459;53.044;8.910;2023-07-31T06:38:25;15.90;99.90
33095;DHT22;19459;53.044;8.910;2023-07-31T06:40:51;15.80;99.90
33095;DHT22;19459;53.044;8.910;2023-07-31T06:43:17;15.90;99.90
33095;DHT22;19459;53.044;8.910;2023-07-31T06:45:43;15.90;99.90
33095;DHT22;19459;53.044;8.910;2023-07-31T06:48:09;15.90;99.90
33095;DHT22;19459;53.044;8.910;2023-07-31T06:50:35;16.00;99.90
33095;DHT22;19459;53.044;8.910;2023-07-31T06:53:00;16.00;99.90
33095;DHT22;19459;53.044;8.910;2023-07-31T06:55:26;16.00;99.90
33095;DHT22;19459;53.044;8.910;2023-07-31T06:57:54;16.10;99.90
33095;DHT22;19459;53.044;8.910;2023-07-31T07:00:22;16.00;99.90
33095;DHT22;19459;53.044;8.910;2023-07-31T07:02:49;16.00;99.90
33095;DHT22;19459;53.044;8.910;2023-07-31T07:05:15;16.10;99.90
33095;DHT22;19459;53.044;8.910;2023-07-31T07:07:42;16.10;99.90
33095;DHT22;19459;53.044;8.910;2023-07-31T07:10:08;16.10;99.90
33095;DHT22;19459;53.044;8.910;2023-07-31T07:12:35;16.10;99.90
33095;DHT22;19459;53.044;8.910;2023-07-31T07:15:01;16.20;99.90
33095;DHT22;19459;53.044;8.910;2023-07-31T07:17:28;16.20;99.90
33095;DHT22;19459;53.044;8.910;2023-07-31T07:19:58;16.20;99.90
33095;DHT22;19459;53.044;8.910;2023-07-31T07:22:25;16.20;99.90
33095;DHT22;19459;53.044;8.910;2023-07-31T07:24:52;16.20;99.90
33095;DHT22;19459;53.044;8.910;2023-07-31T07:27:18;16.20;99.90
33095;DHT22;19459;53.044;8.910;2023-07-31T07:29:45;16.30;99.90
33095;DHT22;19459;53.044;8.910;2023-07-31T07:32:12;16.40;99.90
33095;DHT22;19459;53.044;8.910;2023-07-31T07:34:38;16.40;99.90
33095;DHT22;19459;53.044;8.910;2023-07-31T07:37:04;16.40;99.90
33095;DHT22;19459;53.044;8.910;2023-07-31T07:39:30;16.40;99.90
33095;DHT22;19459;53.044;8.910;2023-07-31T07:41:56;16.40;99.90
33095;DHT22;19459;53.044;8.910;2023-07-31T07:44:22;16.50;99.90
33095;DHT22;19459;53.044;8.910;2023-07-31T07:46:47;16.50;99.90
33095;DHT22;19459;53.044;8.910;2023-07-31T07:49:13;16.60;99.90
33095;DHT22;19459;53.044;8.910;2023-07-31T07:51:39;16.60;99.90
33095;DHT22;19459;53.044;8.910;2023-07-31T07:54:05;16.60;99.90
33095;DHT22;19459;53.044;8.910;2023-07-31T07:56:30;16.60;99.90
33095;DHT22;19459;53.044;8.910;2023-07-31T07:58:56;16.60;99.90
33095;DHT22;19459;53.044;8.910;2023-07-31T08:01:22;16.60;99.90
33095;DHT22;19459;53.044;8.910;2023-07-31T08:03:48;16.70;99.90
33095;DHT22;19459;53.044;8.910;2023-07-31T08:06:15;16.70;99.90
33095;DHT22;19459;53.044;8.910;2023-07-31T08:08:41;16.80;99.90
33095;DHT22;19459;53.044;8.910;2023-07-31T08:11:06;16.80;99.90
33095;DHT22;19459;53.044;8.910;2023-07-31T08:13:32;16.80;99.90
33095;DHT22;19459;53.044;8.910;2023-07-31T08:15:58;16.80;99.90
33095;DHT22;19459;53.044;8.910;2023-07-31T08:18:24;16.80;99.90
33095;DHT22;19459;53.044;8.910;2023-07-31T08:20:50;16.80;99.90
33095;DHT22;19459;53.044;8.910;2023-07-31T08:23:15;16.80;99.90
33095;DHT22;19459;53.044;8.910;2023-07-31T08:25:41;16.80;99.90
33095;DHT22;19459;53.044;8.910;2023-07-31T08:28:09;16.90;99.90
33095;DHT22;19459;53.044;8.910;2023-07-31T08:30:35;16.90;99.90
33095;DHT22;19459;53.044;8.910;2023-07-31T08:33:01;17.00;99.90
33095;DHT22;19459;53.044;8.910;2023-07-31T08:35:28;17.00;99.90
33095;DHT22;19459;53.044;8.910;2023-07-31T08:37:54;17.00;99.90
33095;DHT22;19459;53.044;8.910;2023-07-31T08:40:20;17.00;99.90
33095;DHT22;19459;53.044;8.910;2023-07-31T08:42:48;17.00;99.90
33095;DHT22;19459;53.044;8.910;2023-07-31T08:45:16;17.10;99.90
33095;DHT22;19459;53.044;8.910;2023-07-31T08:47:45;17.10;99.90
33095;DHT22;19459;53.044;8.910;2023-07-31T08:50:17;17.20;99.90
33095;DHT22;19459;53.044;8.910;2023-07-31T08:52:48;17.30;99.90
33095;DHT22;19459;53.044;8.910;2023-07-31T08:55:15;17.30;99.90
33095;DHT22;19459;53.044;8.910;2023-07-31T08:57:41;17.40;99.90
33095;DHT22;19459;53.044;8.910;2023-07-31T09:00:10;17.50;99.90
33095;DHT22;19459;53.044;8.910;2023-07-31T09:02:53;17.30;99.90
33095;DHT22;19459;53.044;8.910;2023-07-31T09:05:22;17.40;99.90
33095;DHT22;19459;53.044;8.910;2023-07-31T09:07:50;17.40;99.90
33095;DHT22;19459;53.044;8.910;2023-07-31T09:10:16;17.50;99.90
33095;DHT22;19459;53.044;8.910;2023-07-31T09:12:42;17.60;99.90
33095;DHT22;19459;53.044;8.910;2023-07-31T09:15:09;17.60;99.90
33095;DHT22;19459;53.044;8.910;2023-07-31T09:17:37;17.70;99.90
33095;DHT22;19459;53.044;8.910;2023-07-31T09:20:21;17.60;99.90
33095;DHT22;19459;53.044;8.910;2023-07-31T09:22:48;17.50;99.90
33095;DHT22;19459;53.044;8.910;2023-07-31T09:25:19;17.60;99.90
33095;DHT22;19459;53.044;8.910;2023-07-31T09:27:52;17.70;99.90
33095;DHT22;19459;53.044;8.910;2023-07-31T09:30:19;17.60;99.90
33095;DHT22;19459;53.044;8.910;2023-07-31T09:32:47;17.60;99.90
33095;DHT22;19459;53.044;8.910;2023-07-31T09:35:21;17.60;99.90
33095;DHT22;19459;53.044;8.910;2023-07-31T09:37:55;17.60;99.90
33095;DHT22;19459;53.044;8.910;2023-07-31T09:40:34;17.50;99.90
33095;DHT22;19459;53.044;8.910;2023-07-31T09:43:12;17.50;99.90
33095;DHT22;19459;53.044;8.910;2023-07-31T09:45:40;17.40;99.90
33095;DHT22;19459;53.044;8.910;2023-07-31T09:48:12;17.50;99.90
33095;DHT22;19459;53.044;8.910;2023-07-31T09:50:40;17.50;99.90
33095;DHT22;19459;53.044;8.910;2023-07-31T09:53:08;17.50;99.90
33095;DHT22;19459;53.044;8.910;2023-07-31T09:55:36;17.50;99.90
33095;DHT22;19459;53.044;8.910;2023-07-31T09:58:11;17.50;99.90
33095;DHT22;19459;53.044;8.910;2023-07-31T10:00:38;17.60;99.90
33095;DHT22;19459;53.044;8.910;2023-07-31T10:03:09;17.60;99.90
33095;DHT22;19459;53.044;8.910;2023-07-31T10:05:42;17.60;99.90
33095;DHT22;19459;53.044;8.910;2023-07-31T10:08:13;17.70;99.90
33095;DHT22;19459;53.044;8.910;2023-07-31T10:10:44;17.80;99.90
33095;DHT22;19459;53.044;8.910;2023-07-31T10:13:12;17.80;99.90
33095;DHT22;19459;53.044;8.910;2023-07-31T10:15:38;17.80;99.90
33095;DHT22;19459;53.044;8.910;2023-07-31T10:18:06;17.80;99.90
33095;DHT22;19459;53.044;8.910;2023-07-31T10:20:32;17.80;99.90
33095;DHT22;19459;53.044;8.910;2023-07-31T10:22:59;17.90;99.90
33095;DHT22;19459;53.044;8.910;2023-07-31T10:25:29;18.00;99.90
33095;DHT22;19459;53.044;8.910;2023-07-31T10:27:57;18.00;99.90
33095;DHT22;19459;53.044;8.910;2023-07-31T10:30:28;18.00;99.90
33095;DHT22;19459;53.044;8.910;2023-07-31T10:32:56;18.00;99.90
33095;DHT22;19459;53.044;8.910;2023-07-31T10:35:22;18.00;99.90
33095;DHT22;19459;53.044;8.910;2023-07-31T10:37:48;18.00;99.90
33095;DHT22;19459;53.044;8.910;2023-07-31T10:40:18;18.00;99.90
33095;DHT22;19459;53.044;8.910;2023-07-31T10:42:56;18.10;99.90
33095;DHT22;19459;53.044;8.910;2023-07-31T10:45:42;18.10;99.90
33095;DHT22;19459;53.044;8.910;2023-07-31T10:48:15;18.20;99.90
33095;DHT22;19459;53.044;8.910;2023-07-31T10:50:51;18.20;99.90
33095;DHT22;19459;53.044;8.910;2023-07-31T10:53:30;18.10;99.90
33095;DHT22;19459;53.044;8.910;2023-07-31T10:55:59;18.10;99.90
33095;DHT22;19459;53.044;8.910;2023-07-31T10:58:25;18.20;99.90
33095;DHT22;19459;53.044;8.910;2023-07-31T11:00:55;18.20;99.90
33095;DHT22;19459;53.044;8.910;2023-07-31T11:03:26;18.20;99.90
33095;DHT22;19459;53.044;8.910;2023-07-31T11:08:26;18.20;99.90
33095;DHT22;19459;53.044;8.910;2023-07-31T11:16:06;18.30;99.90
33095;DHT22;19459;53.044;8.910;2023-07-31T11:18:32;18.30;99.90
33095;DHT22;19459;53.044;8.910;2023-07-31T11:20:58;18.40;99.90
33095;DHT22;19459;53.044;8.910;2023-07-31T11:23:24;18.60;99.90
33095;DHT22;19459;53.044;8.910;2023-07-31T11:25:50;18.60;99.90
33095;DHT22;19459;53.044;8.910;2023-07-31T11:28:17;18.70;99.90
33095;DHT22;19459;53.044;8.910;2023-07-31T11:30:45;18.50;99.90
33095;DHT22;19459;53.044;8.910;2023-07-31T11:33:12;18.60;99.90
33095;DHT22;19459;53.044;8.910;2023-07-31T11:35:47;18.60;99.90
33095;DHT22;19459;53.044;8.910;2023-07-31T11:38:28;18.70;99.90
33095;DHT22;19459;53.044;8.910;2023-07-31T11:41:00;18.70;99.90
33095;DHT22;19459;53.044;8.910;2023-07-31T11:43:30;18.70;99.90
33095;DHT22;19459;53.044;8.910;2023-07-31T11:45:58;18.70;99.90
33095;DHT22;19459;53.044;8.910;2023-07-31T11:48:25;18.70;99.90
33095;DHT22;19459;53.044;8.910;2023-07-31T11:50:54;18.60;99.90
33095;DHT22;19459;53.044;8.910;2023-07-31T11:53:36;18.60;99.90
33095;DHT22;19459;53.044;8.910;2023-07-31T11:56:06;18.70;99.90
33095;DHT22;19459;53.044;8.910;2023-07-31T11:58:34;18.80;99.90
33095;DHT22;19459;53.044;8.910;2023-07-31T12:01:01;18.70;99.90
33095;DHT22;19459;53.044;8.910;2023-07-31T12:03:27;18.80;99.90
33095;DHT22;19459;53.044;8.910;2023-07-31T12:05:54;18.80;99.90
33095;DHT22;19459;53.044;8.910;2023-07-31T12:08:23;18.80;99.90
33095;DHT22;19459;53.044;8.910;2023-07-31T12:10:51;18.80;99.90
33095;DHT22;19459;53.044;8.910;2023-07-31T12:13:22;18.80;99.90
33095;DHT22;19459;53.044;8.910;2023-07-31T12:15:54;18.70;99.90
33095;DHT22;19459;53.044;8.910;2023-07-31T12:18:23;18.70;99.90
33095;DHT22;19459;53.044;8.910;2023-07-31T12:20:58;18.80;99.90
33095;DHT22;19459;53.044;8.910;2023-07-31T12:23:33;18.80;99.90
33095;DHT22;19459;53.044;8.910;2023-07-31T12:28:36;18.80;99.90
33095;DHT22;19459;53.044;8.910;2023-07-31T12:31:16;18.70;99.90
33095;DHT22;19459;53.044;8.910;2023-07-31T12:33:50;18.70;99.90
33095;DHT22;19459;53.044;8.910;2023-07-31T12:36:18;18.70;99.90
33095;DHT22;19459;53.044;8.910;2023-07-31T12:38:47;18.70;99.90
33095;DHT22;19459;53.044;8.910;2023-07-31T12:41:13;18.80;99.90
33095;DHT22;19459;53.044;8.910;2023-07-31T12:43:45;18.90;99.90
33095;DHT22;19459;53.044;8.910;2023-07-31T12:46:11;18.90;99.90
33095;DHT22;19459;53.044;8.910;2023-07-31T12:48:38;18.90;99.90
33095;DHT22;19459;53.044;8.910;2023-07-31T12:51:05;18.90;99.90
33095;DHT22;19459;53.044;8.910;2023-07-31T12:53:32;19.00;99.90
33095;DHT22;19459;53.044;8.910;2023-07-31T12:55:58;18.90;99.90
33095;DHT22;19459;53.044;8.910;2023-07-31T12:58:24;18.90;99.90
33095;DHT22;19459;53.044;8.910;2023-07-31T13:00:51;18.90;99.90
33095;DHT22;19459;53.044;8.910;2023-07-31T13:03:17;18.90;99.90
33095;DHT22;19459;53.044;8.910;2023-07-31T13:05:43;18.90;99.90
33095;DHT22;19459;53.044;8.910;2023-07-31T13:08:09;19.00;99.90
33095;DHT22;19459;53.044;8.910;2023-07-31T13:10:34;19.10;99.90
33095;DHT22;19459;53.044;8.910;2023-07-31T13:13:00;19.00;99.90
33095;DHT22;19459;53.044;8.910;2023-07-31T13:15:26;19.00;99.90
33095;DHT22;19459;53.044;8.910;2023-07-31T13:17:52;19.00;99.90
33095;DHT22;19459;53.044;8.910;2023-07-31T13:20:18;19.10;99.90
33095;DHT22;19459;53.044;8.910;2023-07-31T13:22:43;19.10;99.90
33095;DHT22;19459;53.044;8.910;2023-07-31T13:25:09;19.20;99.90
33095;DHT22;19459;53.044;8.910;2023-07-31T13:27:35;19.20;99.90
33095;DHT22;19459;53.044;8.910;2023-07-31T13:30:01;19.20;99.90
33095;DHT22;19459;53.044;8.910;2023-07-31T13:32:27;19.10;99.90
33095;DHT22;19459;53.044;8.910;2023-07-31T13:34:53;19.10;99.90
33095;DHT22;19459;53.044;8.910;2023-07-31T13:37:19;19.00;99.90
33095;DHT22;19459;53.044;8.910;2023-07-31T13:39:44;19.00;99.90
33095;DHT22;19459;53.044;8.910;2023-07-31T13:42:10;19.00;99.90
33095;DHT22;19459;53.044;8.910;2023-07-31T13:44:41;18.90;99.90
33095;DHT22;19459;53.044;8.910;2023-07-31T13:47:08;18.90;99.90
33095;DHT22;19459;53.044;8.910;2023-07-31T13:49:35;18.90;99.90
33095;DHT22;19459;53.044;8.910;2023-07-31T13:52:02;19.00;99.90
33095;DHT22;19459;53.044;8.910;2023-07-31T13:54:28;18.90;99.90
33095;DHT22;19459;53.044;8.910;2023-07-31T13:56:54;19.00;99.90
33095;DHT22;19459;53.044;8.910;2023-07-31T13:59:20;19.00;99.90
33095;DHT22;19459;53.044;8.910;2023-07-31T14:01:53;18.90;99.90
33095;DHT22;19459;53.044;8.910;2023-07-31T14:04:18;18.90;99.90
33095;DHT22;19459;53.044;8.910;2023-07-31T14:06:44;18.90;99.90
33095;DHT22;19459;53.044;8.910;2023-07-31T14:09:10;18.90;99.90
33095;DHT22;19459;53.044;8.910;2023-07-31T14:11:36;19.00;99.90
33095;DHT22;19459;53.044;8.910;2023-07-31T14:14:02;19.10;99.90
33095;DHT22;19459;53.044;8.910;2023-07-31T14:16:28;19.10;99.90
33095;DHT22;19459;53.044;8.910;2023-07-31T14:18:54;19.10;99.90
33095;DHT22;19459;53.044;8.910;2023-07-31T14:21:20;19.10;99.90
33095;DHT22;19459;53.044;8.910;2023-07-31T14:23:46;19.20;99.90
33095;DHT22;19459;53.044;8.910;2023-07-31T14:26:12;19.20;99.90
33095;DHT22;19459;53.044;8.910;2023-07-31T14:28:38;19.20;99.90
33095;DHT22;19459;53.044;8.910;2023-07-31T14:31:04;19.20;99.90
33095;DHT22;19459;53.044;8.910;2023-07-31T14:33:29;19.30;99.90
33095;DHT22;19459;53.044;8.910;2023-07-31T14:35:55;19.30;99.90
33095;DHT22;19459;53.044;8.910;2023-07-31T14:38:21;19.40;99.90
33095;DHT22;19459;53.044;8.910;2023-07-31T14:40:47;19.50;99.90
33095;DHT22;19459;53.044;8.910;2023-07-31T14:43:13;19.60;99.90
33095;DHT22;19459;53.044;8.910;2023-07-31T14:45:38;19.60;99.90
33095;DHT22;19459;53.044;8.910;2023-07-31T14:48:04;19.70;99.90
33095;DHT22;19459;53.044;8.910;2023-07-31T14:50:30;19.70;99.90
33095;DHT22;19459;53.044;8.910;2023-07-31T14:52:56;19.70;99.90
33095;DHT22;19459;53.044;8.910;2023-07-31T14:55:22;19.60;99.90
33095;DHT22;19459;53.044;8.910;2023-07-31T14:57:47;19.60;99.90
33095;DHT22;19459;53.044;8.910;2023-07-31T15:00:14;19.60;99.90
33095;DHT22;19459;53.044;8.910;2023-07-31T15:02:40;19.70;99.90
33095;DHT22;19459;53.044;8.910;2023-07-31T15:05:06;19.70;99.90
33095;DHT22;19459;53.044;8.910;2023-07-31T15:07:36;19.60;99.90
33095;DHT22;19459;53.044;8.910;2023-07-31T15:10:02;19.60;99.90
33095;DHT22;19459;53.044;8.910;2023-07-31T15:12:29;19.50;99.90
33095;DHT22;19459;53.044;8.910;2023-07-31T15:14:54;19.30;99.90
33095;DHT22;19459;53.044;8.910;2023-07-31T15:17:20;19.20;99.90
33095;DHT22;19459;53.044;8.910;2023-07-31T15:19:46;19.20;99.90
33095;DHT22;19459;53.044;8.910;2023-07-31T15:22:12;19.10;99.90
33095;DHT22;19459;53.044;8.910;2023-07-31T15:24:38;19.10;99.90
33095;DHT22;19459;53.044;8.910;2023-07-31T15:27:04;19.10;99.90
33095;DHT22;19459;53.044;8.910;2023-07-31T15:29:30;19.10;99.90
33095;DHT22;19459;53.044;8.910;2023-07-31T15:31:56;19.10;99.90
33095;DHT22;19459;53.044;8.910;2023-07-31T15:34:22;19.00;99.90
33095;DHT22;19459;53.044;8.910;2023-07-31T15:36:48;19.00;99.90
33095;DHT22;19459;53.044;8.910;2023-07-31T15:39:14;19.00;99.90
33095;DHT22;19459;53.044;8.910;2023-07-31T15:41:40;19.00;99.90
33095;DHT22;19459;53.044;8.910;2023-07-31T15:44:07;19.00;99.90
33095;DHT22;19459;53.044;8.910;2023-07-31T15:46:33;19.00;99.90
33095;DHT22;19459;53.044;8.910;2023-07-31T15:48:59;19.00;99.90
33095;DHT22;19459;53.044;8.910;2023-07-31T15:51:25;19.10;99.90